Time;durP1;ratioP1;P1;durP2;ratioP2;P2;SDS_P1;SDS_P2;PMS_P1;PMS_P2;Temp;Humidity;BMP_temperature;BMP_pressure;BME280_temperature;BME280_humidity;BME280_pressure;Samples;Min_cycle;Max_cycle;Signal;HPM_P1;HPM_P2
2024/03/11 00:00:35;;;;;;;51.78;31.60;;;10.40;53.60;;;;;;5038387;28;20387;-77
2024/03/11 00:03:01;;;;;;;55.35;32.60;;;10.40;54.40;;;;;;5036276;28;20418;-76
2024/03/11 00:05:27;;;;;;;55.83;32.85;;;10.30;55.60;;;;;;5041030;28;20387;-77
2024/03/11 00:07:54;;;;;;;58.38;34.30;;;10.30;56.60;;;;;;5043842;28;20394;-76
2024/03/11 00:10:19;;;;;;;56.00;32.00;;;10.30;58.20;;;;;;5041654;28;20404;-77
2024/03/11 00:12:50;;;;;;;57.37;33.40;;;10.20;59.20;;;;;;5038400;28;20441;-76
2024/03/11 00:15:15;;;;;;;58.28;33.80;;;10.20;59.80;;;;;;5035887;28;20390;-76
2024/03/11 00:17:44;;;;;;;54.97;32.88;;;10.10;62.10;;;;;;5035044;28;20478;-74
2024/03/11 00:20:11;;;;;;;60.10;36.10;;;10.10;63.20;;;;;;5034866;28;20935;-77
2024/03/11 00:22:37;;;;;;;61.63;35.20;;;10.10;64.50;;;;;;5034745;28;20474;-75
2024/03/11 00:25:04;;;;;;;61.13;33.93;;;10.10;65.20;;;;;;5036888;28;20395;-77
2024/03/11 00:27:30;;;;;;;56.05;34.08;;;10.10;65.10;;;;;;5035053;28;20395;-75
2024/03/11 00:29:55;;;;;;;61.10;34.00;;;10.10;66.60;;;;;;5038308;28;20477;-76
2024/03/11 00:32:24;;;;;;;57.42;34.97;;;10.10;67.70;;;;;;5036210;28;20394;-76
2024/03/11 00:34:51;;;;;;;65.78;35.97;;;10.10;68.80;;;;;;5035744;28;20383;-76
2024/03/11 00:37:17;;;;;;;61.80;35.92;;;10.10;69.10;;;;;;5047187;28;20407;-76
2024/03/11 00:39:43;;;;;;;61.15;35.97;;;10.10;68.90;;;;;;5051427;28;20391;-77
2024/03/11 00:42:09;;;;;;;63.60;36.38;;;10.00;70.40;;;;;;5046061;28;20405;-77
2024/03/11 00:44:34;;;;;;;62.30;36.05;;;10.00;72.70;;;;;;5037418;28;20842;-77
2024/03/11 00:47:00;;;;;;;65.40;37.60;;;9.90;73.80;;;;;;5036864;28;20418;-77
2024/03/11 00:49:26;;;;;;;68.43;37.17;;;9.90;74.10;;;;;;5034701;28;20403;-75
2024/03/11 00:51:52;;;;;;;62.42;37.47;;;9.80;76.20;;;;;;5035211;28;20747;-75
2024/03/11 00:54:18;;;;;;;65.72;36.97;;;9.90;77.50;;;;;;5034802;28;20593;-77
2024/03/11 00:56:43;;;;;;;66.78;36.88;;;9.80;77.80;;;;;;5037443;28;20418;-77
2024/03/11 00:59:09;;;;;;;68.88;37.75;;;9.80;79.50;;;;;;5043787;28;20421;-77
2024/03/11 01:01:36;;;;;;;65.38;37.35;;;9.70;79.50;;;;;;5043827;28;20394;-77
2024/03/11 01:04:02;;;;;;;67.07;37.73;;;9.70;80.70;;;;;;5037821;28;20395;-76
2024/03/11 01:06:28;;;;;;;70.55;38.28;;;9.70;81.20;;;;;;5035933;28;20798;-76
2024/03/11 01:08:54;;;;;;;72.32;39.95;;;9.70;82.20;;;;;;5043881;28;20433;-77
2024/03/11 01:11:22;;;;;;;67.00;38.25;;;9.70;83.40;;;;;;5045907;28;20383;-75
2024/03/11 01:13:47;;;;;;;69.25;38.42;;;9.70;84.90;;;;;;5046849;28;20399;-77
2024/03/11 01:16:13;;;;;;;68.28;38.83;;;9.70;85.10;;;;;;5049834;28;20383;-77
2024/03/11 01:18:39;;;;;;;75.32;40.15;;;9.70;86.00;;;;;;5042415;28;20423;-76
2024/03/11 01:21:05;;;;;;;65.85;37.72;;;9.70;85.70;;;;;;5036681;28;20760;-77
2024/03/11 01:23:31;;;;;;;71.18;39.10;;;9.80;86.20;;;;;;5034898;28;20379;-77
2024/03/11 01:25:57;;;;;;;71.22;39.50;;;9.70;87.20;;;;;;5040066;28;20398;-76
2024/03/11 01:28:25;;;;;;;69.47;39.03;;;9.70;87.30;;;;;;5040999;28;20387;-76
2024/03/11 01:30:51;;;;;;;74.97;40.20;;;9.60;87.70;;;;;;5039787;28;20814;-77
2024/03/11 01:33:18;;;;;;;70.97;39.28;;;9.60;89.80;;;;;;5035007;28;20399;-76
2024/03/11 01:35:44;;;;;;;75.57;40.33;;;9.50;90.50;;;;;;5035230;28;20409;-77
2024/03/11 01:38:10;;;;;;;77.27;41.10;;;9.50;92.00;;;;;;5034528;28;20896;-77
2024/03/11 01:40:35;;;;;;;76.83;40.77;;;9.50;93.60;;;;;;5035971;28;20411;-75
2024/03/11 01:43:01;;;;;;;69.67;39.67;;;9.50;94.30;;;;;;5035901;28;20391;-78
2024/03/11 01:45:26;;;;;;;73.03;38.67;;;9.60;93.90;;;;;;5035080;28;20387;-76
2024/03/11 01:47:52;;;;;;;74.20;40.00;;;9.60;94.60;;;;;;5037922;28;20455;-77
2024/03/11 01:50:18;;;;;;;76.97;41.53;;;9.60;94.80;;;;;;5043370;28;20418;-75
2024/03/11 01:52:48;;;;;;;70.17;38.50;;;9.60;93.90;;;;;;5051533;28;20402;-74
2024/03/11 01:55:14;;;;;;;72.63;39.05;;;9.60;93.50;;;;;;5045405;28;20391;-76
2024/03/11 01:57:40;;;;;;;71.75;39.25;;;9.70;92.40;;;;;;5035459;28;20387;-77
2024/03/11 02:00:10;;;;;;;72.15;39.58;;;9.60;92.90;;;;;;5036250;28;20457;-77
2024/03/11 02:02:36;;;;;;;70.70;40.37;;;9.70;92.60;;;;;;5035819;28;20447;-78
2024/03/11 02:05:03;;;;;;;73.90;40.35;;;9.70;92.70;;;;;;5035643;28;20386;-77
2024/03/11 02:07:29;;;;;;;73.22;39.97;;;9.60;92.80;;;;;;5035637;28;20794;-75
2024/03/11 02:09:55;;;;;;;79.30;42.13;;;9.70;92.80;;;;;;5034962;28;20417;-78
2024/03/11 02:12:21;;;;;;;73.40;40.50;;;9.60;94.00;;;;;;5036969;28;20473;-77
2024/03/11 02:14:47;;;;;;;79.80;40.63;;;9.60;95.50;;;;;;5035030;28;20470;-77
2024/03/11 02:17:14;;;;;;;70.30;40.50;;;9.80;91.70;;;;;;5034490;28;20395;-78
2024/03/11 02:19:40;;;;;;;81.80;43.60;;;9.70;92.50;;;;;;5035224;28;20394;-75
2024/03/11 02:22:08;;;;;;;82.03;43.42;;;9.60;93.70;;;;;;5034449;28;20398;-77
2024/03/11 02:24:35;;;;;;;79.40;42.58;;;9.60;95.00;;;;;;5033225;28;20391;-78
2024/03/11 02:27:03;;;;;;;81.38;43.17;;;9.60;94.30;;;;;;5034209;28;20403;-77
2024/03/11 02:29:29;;;;;;;82.60;42.40;;;9.60;94.00;;;;;;5032991;28;20449;-78
2024/03/11 02:31:54;;;;;;;82.53;44.50;;;9.60;92.90;;;;;;5032540;28;20379;-77
2024/03/11 02:34:20;;;;;;;81.00;42.97;;;9.50;94.40;;;;;;5032600;28;20375;-77
2024/03/11 02:36:48;;;;;;;77.95;43.53;;;9.40;95.80;;;;;;5031782;28;20730;-77
2024/03/11 02:39:15;;;;;;;82.15;44.38;;;9.60;93.60;;;;;;5032232;28;20384;-77
2024/03/11 02:41:44;;;;;;;76.18;42.55;;;9.60;96.00;;;;;;5032837;28;20478;-77
2024/03/11 02:44:12;;;;;;;81.82;44.92;;;9.60;93.30;;;;;;5033845;28;20793;-77
2024/03/11 02:46:38;;;;;;;95.60;46.93;;;9.50;95.20;;;;;;5033651;28;20394;-77
2024/03/11 02:49:03;;;;;;;86.15;45.08;;;9.40;96.50;;;;;;5033134;28;20410;-77
2024/03/11 02:51:32;;;;;;;78.68;43.75;;;9.50;94.70;;;;;;5034622;28;20383;-77
2024/03/11 02:53:57;;;;;;;84.70;45.33;;;9.60;92.60;;;;;;5050611;28;20387;-78
2024/03/11 02:56:23;;;;;;;87.53;45.07;;;9.50;93.50;;;;;;5038180;28;20786;-77
2024/03/11 02:58:49;;;;;;;85.18;45.35;;;9.50;93.20;;;;;;5038713;28;20391;-77
2024/03/11 03:01:16;;;;;;;84.40;45.50;;;9.50;93.20;;;;;;5035773;28;20415;-77
2024/03/11 03:03:47;;;;;;;83.88;46.25;;;9.40;92.90;;;;;;5031199;28;20391;-77
2024/03/11 03:06:16;;;;;;;89.40;45.13;;;9.50;93.30;;;;;;5030862;28;20391;-77
2024/03/11 03:08:45;;;;;;;91.82;47.53;;;9.50;94.70;;;;;;5031083;28;20470;-78
2024/03/11 03:11:11;;;;;;;89.07;46.60;;;9.50;91.80;;;;;;5031994;28;20774;-78
2024/03/11 03:13:37;;;;;;;86.78;46.75;;;9.40;92.20;;;;;;5031906;28;20390;-77
2024/03/11 03:16:03;;;;;;;92.75;47.70;;;9.40;92.90;;;;;;5032259;28;20819;-78
2024/03/11 03:18:29;;;;;;;94.60;48.37;;;9.40;93.20;;;;;;5032836;28;20387;-77
2024/03/11 03:20:55;;;;;;;89.53;47.13;;;9.40;94.20;;;;;;5037958;28;20731;-76
2024/03/11 03:23:21;;;;;;;91.20;47.97;;;9.40;93.70;;;;;;5034353;28;20384;-76
2024/03/11 03:25:47;;;;;;;90.80;46.80;;;9.40;91.70;;;;;;5035695;28;20391;-77
2024/03/11 03:28:13;;;;;;;93.82;47.72;;;9.40;92.90;;;;;;5032616;28;20398;-76
2024/03/11 03:30:38;;;;;;;87.97;47.10;;;9.40;94.40;;;;;;5034122;28;20403;-76
2024/03/11 03:33:04;;;;;;;91.43;47.42;;;9.40;93.30;;;;;;5032146;28;20750;-79
2024/03/11 03:35:31;;;;;;;95.25;49.35;;;9.30;94.90;;;;;;5031364;28;20450;-78
2024/03/11 03:37:56;;;;;;;90.85;47.80;;;9.30;96.70;;;;;;5034772;28;20419;-77
2024/03/11 03:40:23;;;;;;;89.43;47.25;;;9.30;96.90;;;;;;5038720;28;20419;-77
2024/03/11 03:42:49;;;;;;;87.90;48.13;;;9.30;95.50;;;;;;5038005;28;20379;-77
2024/03/11 03:45:17;;;;;;;90.90;47.28;;;9.30;96.30;;;;;;5036040;28;20387;-75
2024/03/11 03:47:43;;;;;;;90.80;48.70;;;9.20;97.20;;;;;;5036747;28;20387;-77
2024/03/11 03:50:10;;;;;;;91.75;49.30;;;9.20;97.20;;;;;;5034364;28;20938;-76
2024/03/11 03:52:38;;;;;;;89.40;48.83;;;9.20;97.40;;;;;;5033449;28;20391;-77
2024/03/11 03:55:04;;;;;;;91.18;47.55;;;9.20;97.80;;;;;;5037121;28;20387;-77
2024/03/11 03:57:30;;;;;;;102.28;52.08;;;9.20;97.80;;;;;;5037008;28;20402;-76
2024/03/11 03:59:56;;;;;;;98.07;51.57;;;9.20;96.90;;;;;;5035295;28;20866;-75
2024/03/11 04:02:21;;;;;;;96.97;50.23;;;9.20;97.00;;;;;;5035484;28;20926;-76
2024/03/11 04:04:47;;;;;;;96.47;51.23;;;9.30;94.30;;;;;;5045231;28;20394;-76
2024/03/11 04:07:13;;;;;;;97.10;50.93;;;9.20;94.90;;;;;;5046089;28;20437;-77
2024/03/11 04:09:39;;;;;;;99.63;51.70;;;9.20;95.40;;;;;;5033875;28;20407;-76
2024/03/11 04:12:06;;;;;;;97.73;50.97;;;9.20;93.90;;;;;;5037409;28;20461;-77
2024/03/11 04:14:32;;;;;;;99.03;52.40;;;9.20;94.30;;;;;;5035757;28;20394;-76
2024/03/11 04:16:58;;;;;;;97.97;51.08;;;9.20;94.80;;;;;;5042515;28;20390;-77
2024/03/11 04:19:27;;;;;;;99.97;51.53;;;9.10;95.90;;;;;;5039271;28;20399;-74
2024/03/11 04:21:56;;;;;;;99.43;52.60;;;9.10;96.30;;;;;;5039021;28;20431;-76
2024/03/11 04:24:22;;;;;;;92.03;49.17;;;9.10;97.20;;;;;;5036668;28;20782;-76
2024/03/11 04:26:50;;;;;;;92.35;48.75;;;9.10;97.60;;;;;;5035381;28;20872;-77
2024/03/11 04:29:16;;;;;;;91.45;49.10;;;9.10;97.30;;;;;;5034281;28;20403;-77
2024/03/11 04:31:41;;;;;;;98.17;51.67;;;9.10;96.40;;;;;;5035250;28;20394;-76
2024/03/11 04:34:08;;;;;;;104.73;51.50;;;9.10;97.90;;;;;;5040578;28;20383;-77
2024/03/11 04:36:35;;;;;;;101.90;52.28;;;9.10;98.70;;;;;;5051107;28;20375;-77
2024/03/11 04:39:04;;;;;;;101.70;52.95;;;9.10;98.70;;;;;;5044225;28;20451;-78
2024/03/11 04:41:31;;;;;;;98.55;51.85;;;9.00;99.20;;;;;;5038708;28;20385;-75
2024/03/11 04:43:59;;;;;;;100.75;52.05;;;9.00;99.90;;;;;;5035957;28;20380;-76
2024/03/11 04:46:25;;;;;;;95.70;51.28;;;8.90;99.90;;;;;;5033568;28;20383;-77
2024/03/11 04:48:51;;;;;;;108.50;53.30;;;9.00;99.90;;;;;;5033106;28;20479;-76
2024/03/11 04:51:16;;;;;;;96.93;52.47;;;9.10;99.90;;;;;;5033288;28;20383;-77
2024/03/11 04:53:43;;;;;;;94.57;50.65;;;9.10;99.90;;;;;;5038197;28;20778;-77
2024/03/11 04:56:08;;;;;;;98.22;52.22;;;9.10;99.20;;;;;;5040172;28;20387;-76
2024/03/11 04:58:37;;;;;;;95.43;50.83;;;9.10;97.50;;;;;;5045707;28;20471;-73
2024/03/11 05:01:05;;;;;;;97.50;52.25;;;9.20;96.20;;;;;;5052719;28;20449;-75
2024/03/11 05:03:31;;;;;;;92.38;49.38;;;9.10;96.60;;;;;;5040780;28;20407;-74
2024/03/11 05:05:56;;;;;;;95.90;49.90;;;9.20;93.90;;;;;;5039821;28;20911;-75
2024/03/11 05:08:22;;;;;;;90.00;48.70;;;9.10;94.80;;;;;;5045084;28;20406;-77
2024/03/11 05:10:48;;;;;;;97.00;51.03;;;9.00;96.30;;;;;;5039309;28;20413;-77
2024/03/11 05:13:14;;;;;;;101.50;51.65;;;9.10;97.90;;;;;;5038617;28;20449;-75
2024/03/11 05:15:44;;;;;;;98.20;50.30;;;9.00;98.50;;;;;;5041483;28;20394;-75
2024/03/11 05:18:10;;;;;;;96.57;49.20;;;9.00;99.00;;;;;;5042078;28;20409;-77
2024/03/11 05:20:36;;;;;;;99.45;49.88;;;9.10;98.70;;;;;;5042343;28;20387;-76
2024/03/11 05:23:02;;;;;;;92.27;49.60;;;9.10;97.40;;;;;;5041805;28;20375;-76
2024/03/11 05:25:27;;;;;;;92.87;50.60;;;9.10;96.60;;;;;;5042637;28;20389;-77
2024/03/11 05:27:53;;;;;;;92.50;50.07;;;9.10;96.60;;;;;;5040889;28;20406;-76
2024/03/11 05:30:19;;;;;;;96.73;50.10;;;9.10;97.80;;;;;;5034929;28;20423;-75
2024/03/11 05:32:45;;;;;;;102.47;49.33;;;9.00;98.20;;;;;;5036675;28;20394;-77
2024/03/11 05:35:10;;;;;;;92.80;46.85;;;9.10;97.00;;;;;;5035505;28;20414;-78
2024/03/11 05:37:36;;;;;;;86.80;46.03;;;9.10;96.10;;;;;;5035826;28;20392;-77
2024/03/11 05:40:05;;;;;;;90.35;47.17;;;9.00;96.20;;;;;;5037348;28;20425;-77
2024/03/11 05:42:32;;;;;;;94.65;50.00;;;9.10;96.30;;;;;;5037682;28;20430;-75
2024/03/11 05:44:59;;;;;;;93.77;49.70;;;9.00;97.50;;;;;;5036268;28;20383;-76
2024/03/11 05:47:25;;;;;;;95.63;50.15;;;9.00;98.10;;;;;;5035351;28;20391;-77
2024/03/11 05:49:54;;;;;;;97.43;50.35;;;9.00;98.20;;;;;;5034122;28;20894;-78
2024/03/11 05:52:21;;;;;;;99.10;50.95;;;9.10;97.20;;;;;;5034079;28;20405;-77
2024/03/11 05:54:50;;;;;;;101.38;51.53;;;9.10;97.60;;;;;;5034574;28;20739;-77
2024/03/11 05:57:25;;;;;;;105.47;53.28;;;9.10;97.70;;;;;;5032096;28;20399;-77
2024/03/11 05:59:53;;;;;;;103.70;52.10;;;9.10;98.00;;;;;;5031290;28;20453;-75
2024/03/11 06:02:20;;;;;;;107.65;55.17;;;9.10;97.70;;;;;;5038887;28;20403;-77
2024/03/11 06:04:46;;;;;;;102.43;52.60;;;9.10;98.00;;;;;;5033172;28;20383;-77
2024/03/11 06:07:12;;;;;;;106.53;53.92;;;9.00;98.80;;;;;;5032826;28;20458;-77
2024/03/11 06:09:38;;;;;;;105.47;54.93;;;9.00;98.40;;;;;;5030958;28;20787;-74
2024/03/11 06:12:05;;;;;;;107.63;54.25;;;9.00;98.80;;;;;;5027588;28;20406;-71
2024/03/11 06:14:32;;;;;;;109.20;54.45;;;9.00;97.90;;;;;;5030582;28;21058;-74
2024/03/11 06:16:59;;;;;;;107.30;54.58;;;9.00;98.50;;;;;;5031748;28;20395;-73
2024/03/11 06:19:25;;;;;;;107.15;54.60;;;9.10;98.10;;;;;;5030641;28;20387;-73
2024/03/11 06:21:53;;;;;;;108.93;55.25;;;9.00;98.50;;;;;;5030587;28;20394;-75
2024/03/11 06:24:19;;;;;;;110.85;53.65;;;9.00;97.60;;;;;;5030967;28;20940;-72
2024/03/11 06:26:46;;;;;;;112.80;54.25;;;9.00;98.30;;;;;;5032007;28;20398;-77
2024/03/11 06:29:11;;;;;;;106.55;53.80;;;9.10;98.10;;;;;;5034471;28;20450;-77
2024/03/11 06:31:38;;;;;;;111.13;55.83;;;9.10;96.30;;;;;;5038007;28;20717;-77
2024/03/11 06:34:06;;;;;;;109.35;53.75;;;9.10;96.50;;;;;;5036313;28;20402;-74
2024/03/11 06:36:32;;;;;;;111.25;54.58;;;9.10;97.60;;;;;;5032911;28;20376;-75
2024/03/11 06:38:58;;;;;;;109.53;54.25;;;9.10;96.70;;;;;;5031392;28;20402;-76
2024/03/11 06:41:25;;;;;;;111.60;54.27;;;9.10;96.60;;;;;;5032339;28;20391;-76
2024/03/11 06:43:51;;;;;;;119.55;55.20;;;9.10;95.70;;;;;;5031180;28;20418;-77
2024/03/11 06:46:17;;;;;;;115.82;55.28;;;9.10;95.80;;;;;;5031531;28;20387;-77
2024/03/11 06:48:43;;;;;;;108.55;54.15;;;9.10;94.80;;;;;;5031647;28;20933;-75
2024/03/11 06:51:09;;;;;;;110.60;54.35;;;9.10;95.60;;;;;;5036434;28;20391;-77
2024/03/11 06:53:35;;;;;;;106.70;54.17;;;9.10;97.10;;;;;;5032440;28;20391;-76
2024/03/11 06:56:07;;;;;;;107.87;54.97;;;9.00;96.10;;;;;;5031355;28;20414;-76
2024/03/11 06:58:33;;;;;;;108.82;55.15;;;9.10;96.40;;;;;;5031132;28;20858;-76
2024/03/11 07:00:59;;;;;;;108.50;54.37;;;9.10;94.80;;;;;;5031340;28;20536;-76
2024/03/11 07:03:30;;;;;;;113.40;55.23;;;9.10;96.10;;;;;;5033868;28;20387;-76
2024/03/11 07:05:59;;;;;;;106.70;53.13;;;9.10;97.00;;;;;;5040878;28;20399;-76
2024/03/11 07:08:27;;;;;;;109.32;53.47;;;9.00;98.20;;;;;;5040095;28;20467;-77
2024/03/11 07:10:55;;;;;;;107.28;54.10;;;9.10;95.90;;;;;;5034980;28;20498;-77
2024/03/11 07:13:21;;;;;;;106.70;53.95;;;9.10;95.40;;;;;;5033781;28;20866;-74
2024/03/11 07:15:47;;;;;;;107.82;52.40;;;9.10;95.10;;;;;;5036795;28;20410;-75
2024/03/11 07:18:16;;;;;;;102.88;52.30;;;9.10;93.10;;;;;;5048046;28;20422;-76
2024/03/11 07:20:45;;;;;;;100.80;50.90;;;9.10;92.90;;;;;;5048624;28;20398;-75
2024/03/11 07:23:12;;;;;;;104.13;53.60;;;9.10;94.20;;;;;;5036114;28;20449;-76
2024/03/11 07:25:38;;;;;;;95.13;50.27;;;9.10;93.00;;;;;;5035472;28;20387;-76
2024/03/11 07:28:05;;;;;;;96.95;49.75;;;9.10;92.00;;;;;;5036167;28;20383;-77
2024/03/11 07:30:31;;;;;;;98.45;49.63;;;9.10;92.60;;;;;;5033388;28;20407;-75
2024/03/11 07:33:09;;;;;;;98.65;52.20;;;9.10;94.20;;;;;;5034366;28;20390;-77
2024/03/11 07:35:42;;;;;;;97.88;51.05;;;9.00;95.20;;;;;;5035217;28;20383;-75
2024/03/11 07:38:08;;;;;;;95.40;49.93;;;9.10;94.20;;;;;;5038176;28;20877;-77
2024/03/11 07:40:34;;;;;;;93.80;48.42;;;9.10;94.10;;;;;;5035891;28;20416;-77
2024/03/11 07:43:00;;;;;;;100.07;50.97;;;9.10;94.60;;;;;;5035242;28;20727;-76
2024/03/11 07:45:29;;;;;;;95.77;49.83;;;9.10;94.70;;;;;;5037499;28;20447;-76
2024/03/11 07:47:55;;;;;;;93.88;47.55;;;9.10;92.40;;;;;;5037408;28;20414;-76
2024/03/11 07:50:24;;;;;;;86.20;46.17;;;9.20;92.70;;;;;;5035970;28;20415;-76
2024/03/11 07:52:50;;;;;;;84.68;45.53;;;9.20;91.60;;;;;;5033404;28;20395;-76
2024/03/11 07:55:17;;;;;;;82.68;44.85;;;9.30;90.70;;;;;;5034024;28;20395;-77
2024/03/11 07:57:45;;;;;;;82.22;42.58;;;9.30;89.30;;;;;;5033541;28;20394;-77
2024/03/11 08:00:17;;;;;;;80.00;43.83;;;9.30;90.00;;;;;;5034202;28;20410;-76
2024/03/11 08:02:44;;;;;;;81.28;43.20;;;9.30;91.00;;;;;;5034303;28;20433;-76
2024/03/11 08:05:13;;;;;;;75.40;43.00;;;9.30;90.30;;;;;;5035214;28;20414;-76
2024/03/11 08:07:40;;;;;;;79.00;42.58;;;9.30;89.40;;;;;;5034431;28;20387;-77
2024/03/11 08:10:09;;;;;;;77.93;42.35;;;9.40;90.70;;;;;;5049415;28;20441;-76
2024/03/11 08:12:35;;;;;;;75.68;41.60;;;9.70;86.70;;;;;;5035653;28;20466;-77
2024/03/11 08:15:04;;;;;;;74.97;41.28;;;9.60;86.20;;;;;;5033874;28;20380;-77
2024/03/11 08:20:08;;;;;;;66.25;38.67;;;9.40;89.00;;;;;;4972493;28;20448;-72
2024/03/11 08:22:37;;;;;;;66.90;38.10;;;9.40;87.30;;;;;;4973995;28;20380;-72
2024/03/11 08:25:07;;;;;;;67.37;38.80;;;9.50;84.60;;;;;;4956149;28;20388;-72
2024/03/11 08:27:33;;;;;;;64.50;37.45;;;9.50;83.10;;;;;;4974282;28;20863;-72
2024/03/11 08:29:59;;;;;;;64.53;37.33;;;9.50;83.90;;;;;;4974477;28;20423;-72
2024/03/11 08:32:25;;;;;;;71.70;38.90;;;9.50;84.30;;;;;;4974002;28;20810;-72
2024/03/11 08:34:54;;;;;;;67.38;38.72;;;9.50;84.90;;;;;;4956307;28;20491;-72
2024/03/11 08:37:23;;;;;;;64.05;38.05;;;9.60;85.10;;;;;;4973718;28;20390;-72
2024/03/11 08:39:49;;;;;;;67.90;39.72;;;9.60;85.40;;;;;;4973598;28;20752;-72
2024/03/11 08:42:14;;;;;;;69.57;38.65;;;9.60;85.20;;;;;;4973792;28;20395;-73
2024/03/11 08:44:43;;;;;;;69.05;38.97;;;9.60;86.50;;;;;;4974374;28;20399;-73
2024/03/11 08:47:11;;;;;;;73.73;40.40;;;9.60;87.40;;;;;;4973859;28;20418;-72
2024/03/11 08:49:38;;;;;;;68.53;39.20;;;9.70;87.10;;;;;;4973294;28;20786;-72
2024/03/11 08:52:06;;;;;;;62.67;36.80;;;9.80;84.80;;;;;;4973455;28;20388;-72
2024/03/11 08:54:32;;;;;;;66.10;38.10;;;9.80;83.20;;;;;;4973559;28;20389;-73
2024/03/11 08:56:59;;;;;;;62.58;36.70;;;9.90;81.90;;;;;;4973425;28;20388;-72
2024/03/11 08:59:26;;;;;;;62.17;37.07;;;9.90;80.60;;;;;;4973116;28;20404;-72
2024/03/11 09:01:57;;;;;;;65.10;37.47;;;10.00;79.40;;;;;;4972976;28;20952;-72
2024/03/11 09:04:25;;;;;;;57.63;35.65;;;9.90;79.80;;;;;;4972928;28;20731;-72
2024/03/11 09:06:51;;;;;;;56.05;34.20;;;9.90;78.50;;;;;;4972909;28;20396;-72
2024/03/11 09:09:24;;;;;;;56.97;34.23;;;9.80;79.80;;;;;;4972794;28;20770;-72
2024/03/11 09:11:57;;;;;;;56.55;33.88;;;9.80;79.90;;;;;;4974740;28;20500;-73
2024/03/11 09:14:27;;;;;;;55.90;34.78;;;9.80;79.40;;;;;;4973132;28;20395;-72
2024/03/11 09:16:54;;;;;;;51.83;31.50;;;9.90;79.10;;;;;;4973095;28;20392;-72
2024/03/11 09:19:21;;;;;;;55.42;32.40;;;9.90;75.70;;;;;;4972639;28;20408;-73
2024/03/11 09:21:47;;;;;;;52.25;31.52;;;9.90;75.60;;;;;;4974103;28;20431;-72
2024/03/11 09:24:13;;;;;;;52.40;32.35;;;9.90;75.90;;;;;;4972946;28;20388;-72
2024/03/11 09:26:39;;;;;;;53.00;32.90;;;9.80;78.30;;;;;;4973167;28;20411;-73
2024/03/11 09:29:04;;;;;;;50.97;31.65;;;9.90;78.80;;;;;;4972327;28;20431;-73
2024/03/11 09:31:30;;;;;;;51.90;33.03;;;9.90;78.70;;;;;;4972897;28;20759;-73
2024/03/11 09:33:56;;;;;;;54.85;33.33;;;9.80;80.20;;;;;;4972702;28;20384;-72
2024/03/11 09:36:22;;;;;;;53.77;33.70;;;9.80;80.50;;;;;;4972803;28;20981;-72
2024/03/11 09:38:48;;;;;;;52.92;33.40;;;9.90;81.20;;;;;;4972498;28;20438;-72
2024/03/11 09:41:14;;;;;;;50.10;32.00;;;9.90;81.70;;;;;;4972373;28;20479;-72
2024/03/11 09:43:48;;;;;;;55.53;34.50;;;9.80;81.70;;;;;;4972770;28;20388;-72
2024/03/11 09:46:20;;;;;;;55.08;32.22;;;9.80;83.30;;;;;;4972586;28;20394;-71
2024/03/11 09:48:51;;;;;;;54.63;33.70;;;9.80;83.90;;;;;;4972672;28;20568;-72
2024/03/11 09:51:21;;;;;;;51.28;30.83;;;9.80;80.70;;;;;;4972141;28;20499;-73
2024/03/11 09:53:52;;;;;;;51.78;30.30;;;9.90;77.70;;;;;;4972389;28;20393;-72
2024/03/11 09:56:21;;;;;;;53.67;33.80;;;9.90;77.50;;;;;;4954981;28;20392;-71
2024/03/11 09:58:56;;;;;;;56.22;33.35;;;9.80;79.70;;;;;;4954910;28;20471;-72
2024/03/11 10:01:30;;;;;;;52.08;33.00;;;9.70;82.60;;;;;;4972407;28;20391;-72
2024/03/11 10:04:00;;;;;;;51.10;33.28;;;9.80;84.10;;;;;;4972633;28;20876;-72
2024/03/11 10:06:27;;;;;;;51.80;33.15;;;9.80;83.20;;;;;;4972067;28;20398;-71
2024/03/11 10:08:53;;;;;;;48.03;31.25;;;9.90;82.90;;;;;;4971876;28;20388;-72
2024/03/11 10:11:20;;;;;;;48.20;31.45;;;9.90;80.30;;;;;;4971935;28;20391;-71
2024/03/11 10:13:47;;;;;;;50.70;32.03;;;9.90;80.20;;;;;;4972061;28;20403;-71
2024/03/11 10:16:17;;;;;;;52.85;32.38;;;9.80;81.10;;;;;;4971910;28;20445;-73
2024/03/11 10:19:23;;;;;;;52.55;32.67;;;9.90;79.80;;;;;;4971619;28;20836;-72
2024/03/11 10:21:48;;;;;;;55.00;34.30;;;9.80;83.30;;;;;;4971590;28;20388;-73
2024/03/11 10:24:15;;;;;;;52.45;33.25;;;9.80;83.70;;;;;;4971964;28;20387;-71
2024/03/11 10:26:41;;;;;;;55.58;33.58;;;9.70;83.70;;;;;;4954999;28;20400;-72
2024/03/11 10:29:16;;;;;;;54.78;34.30;;;9.80;82.60;;;;;;4972878;28;20422;-72
2024/03/11 10:31:45;;;;;;;55.72;34.17;;;9.80;82.80;;;;;;4971558;28;20803;-71
2024/03/11 10:34:20;;;;;;;55.73;34.43;;;9.80;83.40;;;;;;4971755;28;20856;-72
2024/03/11 10:36:55;;;;;;;54.65;33.85;;;9.80;85.50;;;;;;4971750;28;20435;-72
2024/03/11 10:41:47;;;;;;;55.20;34.70;;;10.00;83.70;;;;;;4971933;28;20443;-72
2024/03/11 10:44:16;;;;;;;54.85;35.00;;;10.00;84.30;;;;;;4971967;28;20427;-72
2024/03/11 10:46:43;;;;;;;54.88;34.33;;;10.00;82.60;;;;;;4972848;28;20404;-73
2024/03/11 10:49:12;;;;;;;58.53;36.10;;;10.10;83.00;;;;;;4957834;28;20527;-73
2024/03/11 10:51:45;;;;;;;57.55;34.65;;;10.10;83.70;;;;;;4975537;28;20610;-73
2024/03/11 10:54:28;;;;;;;52.28;32.47;;;10.20;82.30;;;;;;4975686;28;20395;-73
2024/03/11 10:56:55;;;;;;;54.63;33.33;;;10.30;76.80;;;;;;4975824;28;20395;-73
2024/03/11 10:59:22;;;;;;;60.03;35.90;;;10.40;79.20;;;;;;4975551;28;20404;-71
2024/03/11 11:01:56;;;;;;;61.20;38.23;;;10.40;81.80;;;;;;4975541;28;20395;-72
2024/03/11 11:04:28;;;;;;;61.42;37.97;;;10.40;79.60;;;;;;4975533;28;20942;-71
2024/03/11 11:06:56;;;;;;;62.70;37.60;;;10.30;79.80;;;;;;4975497;28;20395;-72
2024/03/11 11:09:22;;;;;;;63.17;39.50;;;10.40;77.10;;;;;;4957900;28;20917;-72
2024/03/11 11:11:54;;;;;;;65.10;39.33;;;10.50;76.10;;;;;;4975433;28;20392;-73
2024/03/11 11:14:20;;;;;;;68.28;41.35;;;10.50;77.50;;;;;;4975619;28;20391;-72
2024/03/11 11:16:49;;;;;;;64.95;39.90;;;10.60;78.10;;;;;;4975340;28;20388;-72
2024/03/11 11:19:22;;;;;;;65.72;38.88;;;10.60;73.30;;;;;;4957362;28;21005;-71
2024/03/11 11:21:50;;;;;;;64.43;40.35;;;10.70;71.20;;;;;;4975162;28;20447;-71
2024/03/11 11:24:32;;;;;;;66.70;39.05;;;10.70;75.00;;;;;;4957583;28;21293;-73
2024/03/11 11:27:05;;;;;;;66.32;38.05;;;10.70;76.80;;;;;;4974589;28;20728;-71
2024/03/11 11:29:32;;;;;;;64.32;37.95;;;10.60;76.10;;;;;;4974881;28;20451;-72
2024/03/11 11:32:03;;;;;;;65.65;37.55;;;10.50;76.80;;;;;;4975024;28;20388;-73
2024/03/11 11:34:59;;;;;;;64.35;38.70;;;10.50;77.60;;;;;;4974917;28;20450;-71
2024/03/11 11:37:33;;;;;;;67.32;39.88;;;10.50;78.30;;;;;;4960706;28;20450;-71
2024/03/11 11:40:32;;;;;;;63.70;37.67;;;10.50;79.00;;;;;;4958386;28;20407;-71
2024/03/11 11:42:58;;;;;;;62.10;35.58;;;10.40;76.50;;;;;;4975891;28;20387;-75
2024/03/11 11:45:47;;;;;;;57.30;33.85;;;10.40;76.00;;;;;;4974487;28;20388;-72
2024/03/11 11:48:25;;;;;;;59.88;34.75;;;10.30;76.40;;;;;;4973796;28;20786;-71
2024/03/11 11:50:57;;;;;;;67.20;36.90;;;10.30;77.70;;;;;;4974044;28;20404;-71
2024/03/11 11:53:29;;;;;;;65.10;36.50;;;10.30;79.80;;;;;;4956928;28;20418;-70
2024/03/11 11:55:56;;;;;;;60.55;34.92;;;10.30;79.60;;;;;;4957213;28;20770;-71
2024/03/11 11:58:22;;;;;;;63.10;34.47;;;10.30;78.70;;;;;;4972781;28;20827;-71
2024/03/11 12:00:57;;;;;;;61.45;36.92;;;10.30;77.60;;;;;;4974202;28;20396;-72
2024/03/11 12:03:34;;;;;;;59.95;35.63;;;10.40;77.80;;;;;;4974226;28;20396;-72
2024/03/11 12:06:19;;;;;;;60.03;34.50;;;10.30;75.70;;;;;;4974611;28;20392;-71
2024/03/11 12:08:53;;;;;;;58.67;35.38;;;10.40;75.30;;;;;;4973970;28;20957;-72
2024/03/11 12:11:19;;;;;;;67.57;37.33;;;10.40;75.80;;;;;;4974368;28;20883;-71
2024/03/11 12:13:46;;;;;;;64.68;36.65;;;10.40;77.60;;;;;;4974420;28;20871;-70
2024/03/11 12:16:24;;;;;;;63.03;36.00;;;10.40;78.20;;;;;;4974280;28;20436;-71
2024/03/11 12:19:00;;;;;;;61.75;35.25;;;10.50;78.20;;;;;;4956383;28;20401;-69
2024/03/11 12:21:30;;;;;;;59.17;34.72;;;10.50;77.20;;;;;;4956900;28;20397;-71
2024/03/11 12:23:56;;;;;;;58.95;33.13;;;10.60;76.30;;;;;;4974164;28;20883;-70
2024/03/11 12:26:23;;;;;;;58.15;33.92;;;10.50;77.30;;;;;;4973979;28;20479;-71
2024/03/11 12:29:06;;;;;;;55.60;30.95;;;10.50;76.70;;;;;;4973833;28;20889;-72
2024/03/11 12:31:34;;;;;;;52.25;30.05;;;10.50;78.30;;;;;;4973552;28;20400;-71
2024/03/11 12:34:10;;;;;;;53.03;29.67;;;10.40;77.80;;;;;;4973930;28;20909;-70
2024/03/11 12:36:47;;;;;;;46.63;27.15;;;10.40;79.10;;;;;;4973585;28;20395;-72
2024/03/11 12:39:26;;;;;;;31.02;18.40;;;10.30;80.50;;;;;;4973612;28;20471;-72
2024/03/11 12:41:56;;;;;;;31.13;18.67;;;10.50;75.60;;;;;;4973533;28;20419;-71